Time;durP1;ratioP1;P1;durP2;ratioP2;P2;SDS_P1;SDS_P2;PMS_P1;PMS_P2;Temp;Humidity;BMP_temperature;BMP_pressure;BME280_temperature;BME280_humidity;BME280_pressure;Samples;Min_cycle;Max_cycle;Signal;HPM_P1;HPM_P2
2022/09/02 00:00:45;;;;;;;;;;;20.80;77.80;;;;;;4861577;29;20374;-82
2022/09/02 00:03:12;;;;;;;;;;;20.80;78.00;;;;;;4861490;29;19963;-90
2022/09/02 00:05:39;;;;;;;;;;;20.80;79.20;;;;;;4853693;29;20381;-83
2022/09/02 00:08:06;;;;;;;;;;;20.70;81.50;;;;;;4846828;29;20450;-89
2022/09/02 00:10:35;;;;;;;;;;;20.70;81.70;;;;;;4847852;29;20354;-81
2022/09/02 00:13:02;;;;;;;;;;;20.60;82.20;;;;;;4846660;29;19924;-83
2022/09/02 00:15:29;;;;;;;;;;;20.60;83.10;;;;;;4853766;29;19928;-81
2022/09/02 00:17:56;;;;;;;;;;;20.50;84.30;;;;;;4846197;29;20358;-83
2022/09/02 00:20:24;;;;;;;;;;;20.50;85.10;;;;;;4854614;29;19970;-82
2022/09/02 00:22:51;;;;;;;;;;;20.30;86.80;;;;;;4863500;29;19963;-81
2022/09/02 00:25:18;;;;;;;;;;;20.20;87.20;;;;;;4856198;29;19924;-81
2022/09/02 00:27:44;;;;;;;;;;;20.20;86.90;;;;;;4856983;29;19980;-80
2022/09/02 00:30:12;;;;;;;;;;;20.20;86.50;;;;;;4860181;29;19928;-81
2022/09/02 00:32:38;;;;;;;;;;;20.20;86.00;;;;;;4861042;29;20349;-80
2022/09/02 00:35:06;;;;;;;;;;;20.20;83.00;;;;;;4847987;29;20393;-89
2022/09/02 00:37:32;;;;;;;;;;;20.30;80.00;;;;;;4845526;29;19927;-81
2022/09/02 00:40:00;;;;;;;;;;;20.40;78.70;;;;;;4845428;29;19988;-90
2022/09/02 00:42:27;;;;;;;;;;;20.40;75.10;;;;;;4844141;29;19964;-82
2022/09/02 00:44:53;;;;;;;;;;;20.50;72.50;;;;;;4859258;29;19955;-91
2022/09/02 00:47:21;;;;;;;;;;;20.70;72.10;;;;;;4859991;29;19928;-81
2022/09/02 00:49:50;;;;;;;;;;;20.80;70.90;;;;;;4855389;29;20469;-82
2022/09/02 00:52:22;;;;;;;;;;;20.80;69.80;;;;;;4859330;29;19978;-81
2022/09/02 00:54:52;;;;;;;;;;;20.90;68.20;;;;;;4850292;29;20342;-81
2022/09/02 00:57:22;;;;;;;;;;;21.00;67.90;;;;;;4859350;29;19935;-91
2022/09/02 01:00:01;;;;;;;;;;;21.10;67.00;;;;;;4851420;29;19928;-83
2022/09/02 01:02:30;;;;;;;0.30;0.30;;;21.20;64.90;;;;;;4857952;29;19969;-81
2022/09/02 01:04:59;;;;;;;0.20;0.20;;;21.30;65.00;;;;;;4843465;29;20066;-91
2022/09/02 01:07:33;;;;;;;0.30;0.30;;;21.40;65.60;;;;;;4843508;29;20145;-90
2022/09/02 01:10:08;;;;;;;0.20;0.20;;;21.30;68.30;;;;;;4858523;29;20836;-83
2022/09/02 01:12:36;;;;;;;0.20;0.20;;;21.30;68.70;;;;;;4855449;29;20049;-81
2022/09/02 01:15:04;;;;;;;0.20;0.20;;;21.20;68.60;;;;;;4859585;29;20090;-81
2022/09/02 01:17:33;;;;;;;1.45;0.30;;;21.20;69.00;;;;;;4843965;29;20061;-90
2022/09/02 01:20:06;;;;;;;;;;;21.20;68.50;;;;;;4860102;29;20062;-90
2022/09/02 01:22:33;;;;;;;0.28;0.28;;;21.20;68.00;;;;;;4857344;29;20381;-80
2022/09/02 01:25:05;;;;;;;0.20;0.20;;;21.20;69.50;;;;;;4847895;29;20085;-83
2022/09/02 01:27:32;;;;;;;0.38;0.38;;;21.10;71.50;;;;;;4852452;29;20137;-83
2022/09/02 01:30:00;;;;;;;0.20;0.20;;;21.10;72.20;;;;;;4861061;29;20400;-80
2022/09/02 01:32:28;;;;;;;0.20;0.20;;;21.00;71.00;;;;;;4860499;29;20057;-80
2022/09/02 01:34:56;;;;;;;0.20;0.20;;;21.00;69.30;;;;;;4850284;29;20065;-81
2022/09/02 01:37:23;;;;;;;0.35;0.20;;;21.10;67.00;;;;;;4845698;29;20061;-79
2022/09/02 01:39:51;;;;;;;0.20;0.20;;;21.20;66.00;;;;;;4849028;29;20438;-81
2022/09/02 01:42:20;;;;;;;0.28;0.28;;;21.30;64.00;;;;;;4846733;29;20530;-80
2022/09/02 01:44:47;;;;;;;0.20;0.20;;;21.50;64.10;;;;;;4855208;29;20468;-80
2022/09/02 01:47:18;;;;;;;0.20;0.20;;;21.50;65.70;;;;;;4846064;29;20906;-81
2022/09/02 01:49:45;;;;;;;0.20;0.20;;;21.40;70.70;;;;;;4842663;29;20425;-83
2022/09/02 01:52:12;;;;;;;0.20;0.20;;;21.40;73.40;;;;;;4857715;29;20433;-80
2022/09/02 01:54:40;;;;;;;0.20;0.20;;;21.40;74.20;;;;;;4858684;29;20418;-80
2022/09/02 01:57:07;;;;;;;0.25;0.25;;;21.30;74.50;;;;;;4855813;29;20812;-83
2022/09/02 01:59:34;;;;;;;0.20;0.20;;;21.00;77.50;;;;;;4842631;29;20469;-80
2022/09/02 02:02:01;;;;;;;0.20;0.20;;;20.60;80.50;;;;;;4858117;29;20458;-80
2022/09/02 02:04:28;;;;;;;0.20;0.20;;;20.50;81.50;;;;;;4853719;29;20421;-81
2022/09/02 02:06:55;;;;;;;0.30;0.20;;;20.60;80.40;;;;;;4852062;29;20928;-83
2022/09/02 02:09:22;;;;;;;0.65;0.20;;;20.60;79.50;;;;;;4860218;29;20425;-82
2022/09/02 02:11:49;;;;;;;0.20;0.20;;;20.60;79.60;;;;;;4858666;29;20906;-83
2022/09/02 02:14:17;;;;;;;0.20;0.20;;;20.60;79.40;;;;;;4844053;29;20417;-81
2022/09/02 02:16:45;;;;;;;0.68;0.20;;;20.50;78.50;;;;;;4858137;29;20477;-83
2022/09/02 02:19:12;;;;;;;0.20;0.20;;;20.50;78.40;;;;;;4843501;29;20417;-81
2022/09/02 02:21:39;;;;;;;0.20;0.20;;;20.60;78.20;;;;;;4857344;29;20973;-82
2022/09/02 02:24:07;;;;;;;0.80;0.20;;;20.60;78.40;;;;;;4858874;29;20471;-82
2022/09/02 02:26:35;;;;;;;0.20;0.20;;;20.50;78.50;;;;;;4857242;29;20436;-82
2022/09/02 02:29:02;;;;;;;0.30;0.20;;;20.60;78.30;;;;;;4857201;29;20429;-89
2022/09/02 02:31:29;;;;;;;0.80;0.20;;;20.60;78.40;;;;;;4859848;29;20429;-87
2022/09/02 02:33:56;;;;;;;0.20;0.20;;;20.60;78.80;;;;;;4858327;29;20836;-89
2022/09/02 02:36:23;;;;;;;0.20;0.20;;;20.50;80.50;;;;;;4860609;29;20421;-82
2022/09/02 02:38:50;;;;;;;0.40;0.20;;;20.50;81.20;;;;;;4857772;29;20952;-81
2022/09/02 02:41:17;;;;;;;0.60;0.40;;;20.40;81.20;;;;;;4859636;29;20429;-83
2022/09/02 02:43:44;;;;;;;0.20;0.20;;;20.30;81.70;;;;;;4846128;29;20421;-80
2022/09/02 02:46:11;;;;;;;0.20;0.20;;;20.20;82.70;;;;;;4850283;29;20460;-80
2022/09/02 02:48:38;;;;;;;0.50;0.20;;;20.20;82.70;;;;;;4842953;29;20437;-80
2022/09/02 02:51:06;;;;;;;0.30;0.30;;;20.30;83.40;;;;;;4857211;29;20465;-80
2022/09/02 02:53:36;;;;;;;0.20;0.20;;;20.30;83.10;;;;;;4861723;29;20428;-81
2022/09/02 02:56:04;;;;;;;0.30;0.20;;;20.30;82.70;;;;;;4846230;29;20986;-89
2022/09/02 02:58:31;;;;;;;0.30;0.20;;;20.40;82.10;;;;;;4848919;29;20433;-87
2022/09/02 03:00:59;;;;;;;0.20;0.20;;;20.40;81.60;;;;;;4864946;29;20418;-83
2022/09/02 03:03:27;;;;;;;0.20;0.20;;;20.40;81.80;;;;;;4862749;29;20439;-89
2022/09/02 03:05:54;;;;;;;0.20;0.20;;;20.30;78.40;;;;;;4864262;29;20493;-87
2022/09/02 03:08:24;;;;;;;0.20;0.20;;;20.40;78.10;;;;;;4861310;29;20494;-81
2022/09/02 03:10:54;;;;;;;0.30;0.20;;;20.30;77.40;;;;;;4848710;29;20426;-83
2022/09/02 03:13:23;;;;;;;0.15;0.15;;;20.40;74.90;;;;;;4847296;29;20433;-83
2022/09/02 03:15:50;;;;;;;0.20;0.20;;;20.40;72.80;;;;;;4853927;29;20453;-81
2022/09/02 03:18:18;;;;;;;0.17;0.17;;;20.50;73.00;;;;;;4856430;29;20824;-80
2022/09/02 03:20:45;;;;;;;0.20;0.20;;;20.60;71.10;;;;;;4861968;29;20425;-80
2022/09/02 03:23:12;;;;;;;0.52;0.20;;;20.60;73.70;;;;;;4862093;29;20898;-82
2022/09/02 03:25:42;;;;;;;0.20;0.20;;;20.70;69.70;;;;;;4853444;29;21008;-82
2022/09/02 03:28:10;;;;;;;0.20;0.20;;;20.80;70.80;;;;;;4861640;29;20429;-82
2022/09/02 03:30:38;;;;;;;0.20;0.20;;;20.90;69.50;;;;;;4857650;29;20501;-90
2022/09/02 03:33:06;;;;;;;0.28;0.28;;;20.90;67.80;;;;;;4849206;29;20497;-83
2022/09/02 03:35:38;;;;;;;0.20;0.20;;;20.90;68.10;;;;;;4856046;29;20457;-91
2022/09/02 03:38:06;;;;;;;0.20;0.20;;;20.90;67.20;;;;;;4857427;29;20529;-82
2022/09/02 03:40:34;;;;;;;0.13;0.13;;;20.90;67.50;;;;;;4862276;29;20427;-88
2022/09/02 03:43:01;;;;;;;0.20;0.20;;;20.90;68.80;;;;;;4865434;29;21032;-81
2022/09/02 03:45:28;;;;;;;0.22;0.20;;;20.80;71.50;;;;;;4843654;29;20457;-82
2022/09/02 03:47:56;;;;;;;0.20;0.20;;;20.70;74.00;;;;;;4845157;29;20420;-88
2022/09/02 03:50:30;;;;;;;0.20;0.20;;;20.60;74.90;;;;;;4859891;29;20468;-82
2022/09/02 03:52:58;;;;;;;0.10;0.10;;;20.50;75.60;;;;;;4855207;29;20976;-83
2022/09/02 03:55:25;;;;;;;0.25;0.25;;;20.40;74.00;;;;;;4841285;29;20467;-83
2022/09/02 03:57:53;;;;;;;0.20;0.20;;;20.40;74.10;;;;;;4841185;29;20431;-82
2022/09/02 04:00:23;;;;;;;0.20;0.20;;;20.40;74.40;;;;;;4841494;29;20457;-89
2022/09/02 04:02:54;;;;;;;0.20;0.20;;;20.30;72.90;;;;;;4852878;29;20431;-82
2022/09/02 04:05:22;;;;;;;0.50;0.20;;;20.30;72.80;;;;;;4841355;29;20752;-82
2022/09/02 04:07:51;;;;;;;0.20;0.20;;;20.30;72.00;;;;;;4855357;29;20423;-82
2022/09/02 04:10:20;;;;;;;0.20;0.20;;;20.40;73.80;;;;;;4841213;29;20762;-89
2022/09/02 04:12:48;;;;;;;0.20;0.20;;;20.30;72.60;;;;;;4840225;29;20815;-89
2022/09/02 04:15:15;;;;;;;0.20;0.20;;;20.30;73.70;;;;;;4840905;29;20461;-82
2022/09/02 04:17:42;;;;;;;0.20;0.20;;;20.40;73.70;;;;;;4841219;29;20851;-89
2022/09/02 04:20:11;;;;;;;0.40;0.20;;;20.40;73.10;;;;;;4840796;29;20920;-88
2022/09/02 04:22:38;;;;;;;0.20;0.20;;;20.40;73.40;;;;;;4853935;29;20497;-82
2022/09/02 04:25:07;;;;;;;0.17;0.17;;;20.40;73.40;;;;;;4840358;29;20495;-82
2022/09/02 04:27:34;;;;;;;0.20;0.20;;;20.40;73.40;;;;;;4854441;29;20981;-82
2022/09/02 04:30:01;;;;;;;0.20;0.20;;;20.40;74.70;;;;;;4839985;29;20842;-82
2022/09/02 04:32:28;;;;;;;0.57;0.22;;;20.40;73.60;;;;;;4839912;29;20769;-82
2022/09/02 04:34:55;;;;;;;0.20;0.20;;;20.50;73.80;;;;;;4840341;29;20426;-82
2022/09/02 04:37:22;;;;;;;0.20;0.20;;;20.40;72.90;;;;;;4855829;29;20463;-82
2022/09/02 04:39:49;;;;;;;0.20;0.20;;;20.40;72.90;;;;;;4839084;29;20446;-83
2022/09/02 04:42:16;;;;;;;0.30;0.20;;;20.40;72.90;;;;;;4854772;29;20456;-87
2022/09/02 04:44:45;;;;;;;0.15;0.15;;;20.40;72.90;;;;;;4855241;29;20469;-83
2022/09/02 04:47:12;;;;;;;0.35;0.20;;;20.40;72.90;;;;;;4854808;29;20427;-82
2022/09/02 04:49:41;;;;;;;0.20;0.20;;;20.40;73.90;;;;;;4840666;29;20419;-82
2022/09/02 04:52:09;;;;;;;0.13;0.13;;;20.50;73.70;;;;;;4855291;29;20422;-87
2022/09/02 04:54:36;;;;;;;0.20;0.20;;;20.30;74.90;;;;;;4839412;29;20431;-83
2022/09/02 04:57:03;;;;;;;0.98;0.20;;;20.30;74.30;;;;;;4856422;29;20452;-81
2022/09/02 04:59:35;;;;;;;0.20;0.20;;;20.20;75.50;;;;;;4843557;29;20506;-83
2022/09/02 05:02:04;;;;;;;0.20;0.20;;;20.20;75.20;;;;;;4840546;29;20423;-82
2022/09/02 05:04:32;;;;;;;0.20;0.20;;;20.20;74.10;;;;;;4841217;29;20458;-83
2022/09/02 05:07:01;;;;;;;0.20;0.20;;;20.30;73.20;;;;;;4840139;29;20577;-90
2022/09/02 05:09:30;;;;;;;0.20;0.20;;;20.30;73.70;;;;;;4839265;29;20461;-82
2022/09/02 05:11:57;;;;;;;0.20;0.20;;;20.30;73.80;;;;;;4839938;29;20446;-89
2022/09/02 05:14:24;;;;;;;0.20;0.20;;;20.30;73.70;;;;;;4839243;29;20545;-88
2022/09/02 05:16:52;;;;;;;0.20;0.20;;;20.30;74.60;;;;;;4838843;29;20480;-82
2022/09/02 05:19:23;;;;;;;0.20;0.20;;;20.20;74.20;;;;;;4839604;29;20936;-82
2022/09/02 05:21:54;;;;;;;0.20;0.20;;;20.10;74.50;;;;;;4832986;29;20495;-82
2022/09/02 05:24:20;;;;;;;0.30;0.30;;;20.10;76.40;;;;;;4833260;29;20474;-82
2022/09/02 05:26:52;;;;;;;0.20;0.20;;;20.10;74.80;;;;;;4835532;29;20809;-82
2022/09/02 05:29:19;;;;;;;3.30;0.40;;;20.10;74.60;;;;;;4837526;29;20446;-82
2022/09/02 05:31:47;;;;;;;0.20;0.20;;;20.10;75.50;;;;;;4849986;29;20427;-83
2022/09/02 05:34:15;;;;;;;0.20;0.20;;;20.20;75.80;;;;;;4839488;29;20439;-82
2022/09/02 05:36:43;;;;;;;0.20;0.20;;;20.10;74.70;;;;;;4838789;29;20821;-88
2022/09/02 05:39:10;;;;;;;0.20;0.20;;;20.20;72.90;;;;;;4839990;29;20423;-89
2022/09/02 05:41:37;;;;;;;0.30;0.20;;;20.20;73.10;;;;;;4838534;29;20422;-83
2022/09/02 05:44:05;;;;;;;0.20;0.20;;;20.20;72.50;;;;;;4839172;29;20491;-83
2022/09/02 05:46:33;;;;;;;0.20;0.20;;;20.20;70.90;;;;;;4838549;29;20785;-86
2022/09/02 05:49:07;;;;;;;0.20;0.20;;;20.30;70.50;;;;;;4839764;29;20441;-81
2022/09/02 05:51:40;;;;;;;0.20;0.20;;;20.40;69.20;;;;;;4845838;29;20423;-89
2022/09/02 05:54:10;;;;;;;0.60;0.20;;;20.40;68.80;;;;;;4856480;29;20461;-81
2022/09/02 05:56:39;;;;;;;0.20;0.20;;;20.40;69.40;;;;;;4840365;29;20501;-82
2022/09/02 05:59:11;;;;;;;0.28;0.20;;;20.40;69.30;;;;;;4858171;29;20433;-82
2022/09/02 06:01:38;;;;;;;0.20;0.20;;;20.50;68.40;;;;;;4844297;29;20429;-81
2022/09/02 06:04:06;;;;;;;0.20;0.20;;;20.50;68.40;;;;;;4850986;29;20504;-83
2022/09/02 06:06:37;;;;;;;0.20;0.20;;;20.50;68.80;;;;;;4857580;29;20517;-81
2022/09/02 06:09:07;;;;;;;0.20;0.20;;;20.60;69.10;;;;;;4843465;29;20488;-81
2022/09/02 06:11:38;;;;;;;0.20;0.20;;;20.50;68.30;;;;;;4857133;29;20434;-81
2022/09/02 06:14:07;;;;;;;0.20;0.20;;;20.60;68.10;;;;;;4857290;29;20448;-81
2022/09/02 06:16:34;;;;;;;0.20;0.20;;;20.60;68.20;;;;;;4841778;29;20918;-83
2022/09/02 06:19:02;;;;;;;0.13;0.13;;;20.60;68.30;;;;;;4858278;29;20426;-82
2022/09/02 06:21:30;;;;;;;0.70;0.20;;;20.60;68.30;;;;;;4845058;29;20772;-81
2022/09/02 06:23:58;;;;;;;0.20;0.20;;;20.60;68.30;;;;;;4860432;29;20448;-81
2022/09/02 06:26:25;;;;;;;0.20;0.20;;;20.60;68.50;;;;;;4859080;29;20844;-79
2022/09/02 06:28:52;;;;;;;0.20;0.20;;;20.60;68.80;;;;;;4856468;29;20425;-82
2022/09/02 06:31:21;;;;;;;0.20;0.20;;;20.60;69.20;;;;;;4858189;29;20473;-85
2022/09/02 06:33:52;;;;;;;0.20;0.20;;;20.60;69.10;;;;;;4853007;29;20426;-80
2022/09/02 06:36:21;;;;;;;0.50;0.20;;;20.60;70.30;;;;;;4847930;29;20827;-81
2022/09/02 06:38:56;;;;;;;0.20;0.20;;;20.60;69.60;;;;;;4848951;29;20493;-84
2022/09/02 06:41:27;;;;;;;0.20;0.20;;;20.60;69.60;;;;;;4852036;29;20489;-83
2022/09/02 06:44:00;;;;;;;0.20;0.20;;;20.70;69.10;;;;;;4852641;29;20502;-87
2022/09/02 06:46:34;;;;;;;0.20;0.20;;;20.60;69.40;;;;;;4847209;29;20429;-80
2022/09/02 06:49:04;;;;;;;0.10;0.10;;;20.70;69.30;;;;;;4852801;29;20430;-80
2022/09/02 06:51:50;;;;;;;4.00;0.70;;;20.70;69.00;;;;;;4844707;29;20429;-81
2022/09/02 06:54:19;;;;;;;1.20;0.20;;;20.80;69.20;;;;;;4863891;29;20413;-86
2022/09/02 06:56:47;;;;;;;0.40;0.20;;;20.90;70.40;;;;;;4848684;29;20458;-81
2022/09/02 06:59:17;;;;;;;0.20;0.20;;;20.90;70.50;;;;;;4854810;29;20477;-81
2022/09/02 07:01:44;;;;;;;2.00;0.30;;;20.90;69.70;;;;;;4856208;29;20417;-80
2022/09/02 07:06:57;;;;;;;0.20;0.20;;;21.10;71.30;;;;;;4862546;29;20473;-80
2022/09/02 07:09:29;;;;;;;0.50;0.30;;;21.10;71.30;;;;;;4847923;29;20436;-87
2022/09/02 07:11:59;;;;;;;0.20;0.20;;;21.20;70.00;;;;;;4860152;29;20906;-82
2022/09/02 07:14:35;;;;;;;0.10;0.10;;;21.30;68.70;;;;;;4850129;29;20421;-79
2022/09/02 07:17:02;;;;;;;0.22;0.20;;;21.30;66.00;;;;;;4855554;29;20894;-80
2022/09/02 07:19:29;;;;;;;0.10;0.10;;;21.30;65.60;;;;;;4846496;29;20425;-82
2022/09/02 07:21:56;;;;;;;0.17;0.17;;;21.40;66.10;;;;;;4862752;29;21066;-82
2022/09/02 07:24:23;;;;;;;0.20;0.20;;;21.50;66.30;;;;;;4851129;29;20134;-81
2022/09/02 07:26:50;;;;;;;;;;;21.60;65.50;;;;;;4854270;29;20072;-86
2022/09/02 07:29:21;;;;;;;0.20;0.20;;;21.60;63.60;;;;;;4855964;29;19974;-82
2022/09/02 07:31:49;;;;;;;0.10;0.10;;;21.70;63.10;;;;;;4852151;29;20498;-89
2022/09/02 07:34:16;;;;;;;0.20;0.20;;;21.70;62.50;;;;;;4865566;29;20113;-82
2022/09/02 07:36:46;;;;;;;0.20;0.20;;;21.70;63.20;;;;;;4854775;29;20087;-81
2022/09/02 07:39:14;;;;;;;0.32;0.20;;;21.70;63.80;;;;;;4859765;29;20053;-82
2022/09/02 07:41:45;;;;;;;0.10;0.10;;;21.90;65.20;;;;;;4852471;29;20054;-87
2022/09/02 07:44:13;;;;;;;0.20;0.20;;;22.20;61.90;;;;;;4845526;29;20096;-82
2022/09/02 07:46:40;;;;;;;0.20;0.20;;;22.40;62.90;;;;;;4850677;29;20062;-81
2022/09/02 07:49:11;;;;;;;0.35;0.20;;;22.60;62.00;;;;;;4857932;29;20057;-81
2022/09/02 07:51:41;;;;;;;0.20;0.20;;;22.90;60.30;;;;;;4864712;29;20118;-81
2022/09/02 07:54:09;;;;;;;0.20;0.20;;;22.90;60.10;;;;;;4856443;29;20082;-87
2022/09/02 07:56:36;;;;;;;0.28;0.20;;;23.10;59.80;;;;;;4850959;29;20069;-81
2022/09/02 07:59:03;;;;;;;0.20;0.20;;;23.30;60.00;;;;;;4856131;29;20450;-86
2022/09/02 08:01:30;;;;;;;0.20;0.20;;;23.50;58.10;;;;;;4860258;29;20503;-81
2022/09/02 08:03:58;;;;;;;0.30;0.20;;;23.50;58.30;;;;;;4860046;29;20061;-81
2022/09/02 08:06:32;;;;;;;0.10;0.10;;;23.40;57.00;;;;;;4860655;29;20058;-80
2022/09/02 08:09:03;;;;;;;0.15;0.15;;;23.40;58.00;;;;;;4855072;29;20058;-82
2022/09/02 08:11:31;;;;;;;0.35;0.20;;;23.30;58.10;;;;;;4848157;29;20061;-80
2022/09/02 08:13:59;;;;;;;0.20;0.20;;;23.10;57.90;;;;;;4867439;29;20067;-88
2022/09/02 08:16:27;;;;;;;0.20;0.20;;;22.90;59.60;;;;;;4869343;29;20069;-82
2022/09/02 08:18:54;;;;;;;0.20;0.20;;;22.80;60.90;;;;;;4852383;29;20089;-81
2022/09/02 08:21:21;;;;;;;0.20;0.20;;;22.60;61.60;;;;;;4869680;29;20502;-82
2022/09/02 08:23:49;;;;;;;;;;;22.50;61.00;;;;;;4846329;29;20058;-87
2022/09/02 08:26:17;;;;;;;0.30;0.30;;;22.50;62.20;;;;;;4860529;29;20407;-84
2022/09/02 08:28:44;;;;;;;;;;;22.40;63.80;;;;;;4854864;29;20062;-80
2022/09/02 08:31:11;;;;;;;0.20;0.20;;;22.40;64.60;;;;;;4858011;29;19948;-82
2022/09/02 08:33:38;;;;;;;0.20;0.20;;;22.40;65.30;;;;;;4856075;29;20062;-82
2022/09/02 08:36:08;;;;;;;0.20;0.20;;;22.40;65.40;;;;;;4861542;29;20437;-82
2022/09/02 08:38:35;;;;;;;0.20;0.20;;;22.30;64.50;;;;;;4866229;29;20464;-82
2022/09/02 08:41:12;;;;;;;0.20;0.20;;;22.40;64.80;;;;;;4853270;29;20057;-80
2022/09/02 08:43:42;;;;;;;0.20;0.20;;;22.30;63.80;;;;;;4866688;29;20129;-88
2022/09/02 08:46:13;;;;;;;0.20;0.20;;;22.30;63.00;;;;;;4854577;29;20491;-82
2022/09/02 08:49:12;;;;;;;0.20;0.20;;;22.30;63.70;;;;;;4854089;29;20064;-86
2022/09/02 08:51:50;;;;;;;0.20;0.20;;;22.30;63.20;;;;;;4833921;29;20087;-80
2022/09/02 08:54:30;;;;;;;0.20;0.20;;;22.20;63.20;;;;;;4862704;29;20115;-87
2022/09/02 08:56:57;;;;;;;0.20;0.20;;;22.30;63.30;;;;;;4838986;29;20072;-81
2022/09/02 08:59:27;;;;;;;1.77;0.35;;;22.30;63.10;;;;;;4858894;29;20057;-82
2022/09/02 09:02:13;;;;;;;0.20;0.20;;;22.30;62.90;;;;;;4858873;29;20065;-88
2022/09/02 09:04:53;;;;;;;1.00;0.20;;;22.40;64.50;;;;;;4852844;29;20105;-84
2022/09/02 09:08:18;;;;;;;0.20;0.20;;;22.40;62.00;;;;;;4855816;29;20069;-86
2022/09/02 09:11:27;;;;;;;0.47;0.30;;;22.50;61.90;;;;;;4848715;29;20068;-81
2022/09/02 09:13:57;;;;;;;0.15;0.15;;;22.50;61.60;;;;;;4860532;29;20084;-88
2022/09/02 09:16:57;;;;;;;0.30;0.20;;;22.50;62.10;;;;;;4865588;29;20069;-83
2022/09/02 09:19:47;;;;;;;0.20;0.20;;;22.50;61.60;;;;;;4850794;29;20065;-82
2022/09/02 09:22:21;;;;;;;0.20;0.20;;;22.60;61.90;;;;;;4862918;29;20086;-81
2022/09/02 09:24:49;;;;;;;0.20;0.20;;;22.60;61.60;;;;;;4858995;29;20495;-81
2022/09/02 09:27:21;;;;;;;0.38;0.20;;;22.60;61.20;;;;;;4853772;29;20471;-83
2022/09/02 09:29:50;;;;;;;0.10;0.10;;;22.70;61.10;;;;;;4861925;29;20620;-81
2022/09/02 09:32:29;;;;;;;0.20;0.20;;;22.70;61.10;;;;;;4853272;29;20452;-86
2022/09/02 09:35:00;;;;;;;0.20;0.20;;;22.80;62.20;;;;;;4862084;29;20065;-86
2022/09/02 09:37:47;;;;;;;0.13;0.13;;;22.90;60.80;;;;;;4863967;29;20522;-81
2022/09/02 09:40:20;;;;;;;0.20;0.20;;;22.90;60.40;;;;;;4846852;29;20088;-83
2022/09/02 09:43:12;;;;;;;0.20;0.20;;;22.90;61.50;;;;;;4858917;29;20149;-82
2022/09/02 09:45:50;;;;;;;0.20;0.20;;;23.00;60.80;;;;;;4859620;29;20065;-81
2022/09/02 09:48:30;;;;;;;0.40;0.30;;;23.10;60.60;;;;;;4846806;29;20069;-82
2022/09/02 09:50:57;;;;;;;0.40;0.40;;;23.10;60.20;;;;;;4865001;29;20098;-81
2022/09/02 09:53:27;;;;;;;0.52;0.43;;;23.20;60.70;;;;;;4855681;29;20114;-88
2022/09/02 09:55:56;;;;;;;0.28;0.28;;;23.30;59.90;;;;;;4859353;29;20066;-88
2022/09/02 09:58:35;;;;;;;0.20;0.20;;;23.40;59.30;;;;;;4862278;29;20085;-82
2022/09/02 10:01:16;;;;;;;3.20;0.20;;;23.40;59.60;;;;;;4843861;29;20065;-81
2022/09/02 10:03:53;;;;;;;0.10;0.10;;;23.40;59.00;;;;;;4843695;29;20062;-88
2022/09/02 10:06:34;;;;;;;0.10;0.10;;;23.40;60.50;;;;;;4855176;29;20578;-88
2022/09/02 10:09:06;;;;;;;0.20;0.20;;;23.40;59.60;;;;;;4857892;29;20058;-82
2022/09/02 10:11:35;;;;;;;0.13;0.13;;;23.40;58.90;;;;;;4843948;29;20081;-83
2022/09/02 10:14:08;;;;;;;0.13;0.13;;;23.50;59.10;;;;;;4852773;29;20091;-80
2022/09/02 10:17:05;;;;;;;0.20;0.20;;;23.60;58.80;;;;;;4847655;29;20412;-80
2022/09/02 10:19:36;;;;;;;0.47;0.20;;;23.70;58.90;;;;;;4857906;29;20061;-81
2022/09/02 10:22:15;;;;;;;0.20;0.20;;;23.80;58.80;;;;;;4859186;29;20053;-86
2022/09/02 10:25:01;;;;;;;0.20;0.20;;;23.90;58.70;;;;;;4849018;29;20094;-82
2022/09/02 10:27:43;;;;;;;0.10;0.10;;;24.00;60.00;;;;;;4862207;29;20061;-83
2022/09/02 10:30:20;;;;;;;0.10;0.10;;;24.00;59.40;;;;;;4862897;29;20133;-83
2022/09/02 10:32:50;;;;;;;0.50;0.20;;;24.00;57.80;;;;;;4852688;29;20050;-81
2022/09/02 10:35:32;;;;;;;0.10;0.10;;;24.00;57.70;;;;;;4863778;29;20459;-88
2022/09/02 10:38:04;;;;;;;0.10;0.10;;;24.00;57.80;;;;;;4842413;29;20064;-82
2022/09/02 10:40:57;;;;;;;0.10;0.10;;;24.00;57.10;;;;;;4862898;29;20502;-83
2022/09/02 10:43:30;;;;;;;0.20;0.20;;;24.00;57.60;;;;;;4864094;29;20060;-83
2022/09/02 10:45:59;;;;;;;0.10;0.10;;;24.00;57.00;;;;;;4865471;29;20061;-89
2022/09/02 10:48:51;;;;;;;0.10;0.10;;;24.00;57.20;;;;;;4865475;29;20060;-82
2022/09/02 10:51:21;;;;;;;0.17;0.15;;;24.10;57.00;;;;;;4861676;29;20054;-86
2022/09/02 10:54:10;;;;;;;0.10;0.10;;;24.20;57.40;;;;;;4866661;29;20061;-83
2022/09/02 10:56:49;;;;;;;0.20;0.20;;;24.30;57.20;;;;;;4873596;29;20061;-81
2022/09/02 10:59:32;;;;;;;0.10;0.10;;;24.40;57.50;;;;;;4847709;29;20060;-84
2022/09/02 11:02:11;;;;;;;0.10;0.10;;;24.60;56.60;;;;;;4851542;29;20472;-83
2022/09/02 11:04:55;;;;;;;0.10;0.10;;;24.70;55.40;;;;;;4858932;29;20114;-83
2022/09/02 11:07:31;;;;;;;0.20;0.10;;;24.70;55.50;;;;;;4866684;29;20057;-87
2022/09/02 11:10:24;;;;;;;0.20;0.10;;;24.80;54.90;;;;;;4866628;29;20069;-83
2022/09/02 11:13:19;;;;;;;0.10;0.10;;;24.80;54.40;;;;;;4866556;29;20069;-83
2022/09/02 11:15:56;;;;;;;0.10;0.10;;;24.70;55.60;;;;;;4864500;29;20066;-85
2022/09/02 11:18:49;;;;;;;0.20;0.15;;;24.70;55.60;;;;;;4853450;29;20092;-82
2022/09/02 11:21:38;;;;;;;0.10;0.10;;;24.50;55.80;;;;;;4848655;29;20448;-82
2022/09/02 11:24:09;;;;;;;0.30;0.10;;;24.70;56.00;;;;;;4858547;29;20065;-83
2022/09/02 11:26:41;;;;;;;0.10;0.10;;;24.90;55.50;;;;;;4864077;29;20499;-83
2022/09/02 11:29:15;;;;;;;0.20;0.20;;;24.90;54.60;;;;;;4860424;29;20086;-81
2022/09/02 11:31:57;;;;;;;0.15;0.15;;;24.90;54.90;;;;;;4847305;29;20061;-81
2022/09/02 11:34:35;;;;;;;0.10;0.10;;;24.90;55.00;;;;;;4865960;29;20172;-83
2022/09/02 11:37:09;;;;;;;0.10;0.10;;;24.80;56.00;;;;;;4862826;29;20109;-82
2022/09/02 11:39:47;;;;;;;0.20;0.20;;;24.60;56.20;;;;;;4862432;29;20061;-83
2022/09/02 11:42:30;;;;;;;0.10;0.10;;;24.60;56.40;;;;;;4852252;29;20077;-82
2022/09/02 11:45:22;;;;;;;0.10;0.10;;;24.50;56.40;;;;;;4862281;29;20050;-81
2022/09/02 11:48:02;;;;;;;0.43;0.10;;;24.50;56.50;;;;;;4861515;29;20498;-83
2022/09/02 11:51:07;;;;;;;0.20;0.20;;;24.50;55.40;;;;;;4856846;29;20061;-82
2022/09/02 11:53:39;;;;;;;0.10;0.10;;;24.40;56.30;;;;;;4860064;29;20057;-83
2022/09/02 11:56:15;;;;;;;0.20;0.17;;;24.40;57.10;;;;;;4845577;29;20057;-87
2022/09/02 11:58:48;;;;;;;0.20;0.20;;;24.40;58.30;;;;;;4866283;29;20435;-82
2022/09/02 12:01:17;;;;;;;0.20;0.20;;;24.40;58.60;;;;;;4846493;29;20391;-81
2022/09/02 12:03:57;;;;;;;0.10;0.10;;;24.50;57.90;;;;;;4860572;29;20205;-82
2022/09/02 12:07:05;;;;;;;0.10;0.10;;;24.60;57.40;;;;;;4855658;29;20061;-87
2022/09/02 12:09:54;;;;;;;0.20;0.20;;;24.60;58.20;;;;;;4861280;29;20064;-82
2022/09/02 12:12:37;;;;;;;0.20;0.20;;;24.60;58.30;;;;;;4846031;29;20061;-83
2022/09/02 12:15:05;;;;;;;0.13;0.13;;;24.50;57.40;;;;;;4860088;29;20058;-82
2022/09/02 12:17:41;;;;;;;0.20;0.20;;;24.40;57.20;;;;;;4860257;29;20062;-82
2022/09/02 12:20:43;;;;;;;0.20;0.20;;;24.30;58.70;;;;;;4859494;29;20480;-81
2022/09/02 12:23:51;;;;;;;0.38;0.20;;;24.40;58.60;;;;;;4861005;29;20061;-86
2022/09/02 12:26:38;;;;;;;0.20;0.20;;;24.40;58.20;;;;;;4854100;29;20098;-83
2022/09/02 12:29:23;;;;;;;0.13;0.13;;;24.40;57.90;;;;;;4851036;29;20136;-83
2022/09/02 12:31:51;;;;;;;0.20;0.20;;;24.30;58.00;;;;;;4859573;29;20454;-81
2022/09/02 12:34:24;;;;;;;0.20;0.20;;;24.20;58.00;;;;;;4849528;29;20444;-86
2022/09/02 12:36:59;;;;;;;0.20;0.20;;;24.20;58.80;;;;;;4861053;29;20102;-81
2022/09/02 12:39:26;;;;;;;0.20;0.20;;;24.20;58.40;;;;;;4846679;29;20062;-79
2022/09/02 12:41:56;;;;;;;0.20;0.20;;;24.20;58.80;;;;;;4860456;29;20426;-79
2022/09/02 12:44:38;;;;;;;0.20;0.20;;;24.20;59.00;;;;;;4859697;29;20069;-82
2022/09/02 12:47:22;;;;;;;0.10;0.10;;;24.20;58.70;;;;;;4855324;29;20057;-82
2022/09/02 12:50:02;;;;;;;0.15;0.15;;;24.30;58.70;;;;;;4843060;29;21141;-86
2022/09/02 12:52:33;;;;;;;0.20;0.20;;;24.40;57.40;;;;;;4859230;29;20509;-81
2022/09/02 12:55:29;;;;;;;0.10;0.10;;;24.30;57.30;;;;;;4864695;29;20084;-86
2022/09/02 12:58:21;;;;;;;0.20;0.20;;;24.40;57.80;;;;;;4844369;29;20109;-82
2022/09/02 13:00:50;;;;;;;0.20;0.20;;;24.60;57.00;;;;;;4856843;29;20068;-80
2022/09/02 13:03:35;;;;;;;0.20;0.20;;;24.80;57.70;;;;;;4860552;29;20060;-82
2022/09/02 13:06:31;;;;;;;0.50;0.28;;;24.70;55.80;;;;;;4865141;29;20057;-81
2022/09/02 13:08:58;;;;;;;0.93;0.35;;;24.80;56.50;;;;;;4853032;29;20533;-83
2022/09/02 13:11:47;;;;;;;0.13;0.13;;;24.80;56.20;;;;;;4859706;29;20062;-81
2022/09/02 13:14:23;;;;;;;0.20;0.20;;;24.90;56.70;;;;;;4857643;29;20065;-80
2022/09/02 13:16:50;;;;;;;0.40;0.20;;;25.00;55.30;;;;;;4858630;29;20113;-81
2022/09/02 13:20:03;;;;;;;0.30;0.20;;;25.00;56.30;;;;;;4860840;29;20069;-80
2022/09/02 13:22:55;;;;;;;0.10;0.10;;;24.90;54.80;;;;;;4765189;30;20063;-80
2022/09/02 13:25:55;;;;;;;0.13;0.10;;;25.00;55.10;;;;;;4749077;30;20323;-80